createdAt,value
2023-06-30T00:00:34.545Z,35.89
2023-06-30T00:01:34.615Z,35.86
2023-06-30T00:02:34.642Z,35.83
2023-06-30T00:03:34.740Z,36.04
2023-06-30T00:04:34.669Z,36.14
2023-06-30T00:05:34.628Z,36.22
2023-06-30T00:06:34.627Z,36.27
2023-06-30T00:07:34.732Z,36.15
2023-06-30T00:08:34.668Z,36.18
2023-06-30T00:09:34.704Z,36.22
2023-06-30T00:10:34.703Z,36.25
2023-06-30T00:11:34.734Z,36.22
2023-06-30T00:12:34.857Z,36.33
2023-06-30T00:13:34.789Z,36.32
2023-06-30T00:14:34.783Z,36.29
2023-06-30T00:15:34.849Z,36.26
2023-06-30T00:16:34.901Z,36.39
2023-06-30T00:17:34.847Z,36.42
2023-06-30T00:18:34.857Z,36.44
2023-06-30T00:19:34.862Z,36.40
2023-06-30T00:20:35.073Z,36.52
2023-06-30T00:21:34.893Z,36.37
2023-06-30T00:22:34.938Z,36.48
2023-06-30T00:23:34.947Z,36.57
2023-06-30T00:24:34.974Z,36.56
2023-06-30T00:25:34.979Z,36.49
2023-06-30T00:26:35.002Z,36.61
2023-06-30T00:27:35.010Z,36.72
2023-06-30T00:28:35.064Z,36.57
2023-06-30T00:29:35.068Z,36.58
2023-06-30T00:30:35.070Z,36.71
2023-06-30T00:31:35.196Z,36.76
2023-06-30T00:32:35.140Z,36.85
2023-06-30T00:33:35.129Z,36.76
2023-06-30T00:34:35.149Z,36.68
2023-06-30T00:35:35.162Z,36.79
2023-06-30T00:36:35.203Z,36.72
2023-06-30T00:37:35.206Z,36.68
2023-06-30T00:38:35.281Z,36.80
2023-06-30T00:39:35.272Z,36.87
2023-06-30T00:40:35.281Z,36.76
2023-06-30T00:41:35.293Z,36.79
2023-06-30T00:42:35.317Z,36.71
2023-06-30T00:43:35.334Z,36.82
2023-06-30T00:44:35.337Z,36.71
2023-06-30T00:45:35.371Z,36.74
2023-06-30T00:46:35.419Z,36.87
2023-06-30T00:47:35.413Z,36.87
2023-06-30T00:48:35.409Z,36.82
2023-06-30T00:49:35.429Z,36.91
2023-06-30T00:50:35.446Z,36.87
2023-06-30T00:51:35.473Z,36.87
2023-06-30T00:52:35.478Z,36.87
2023-06-30T00:53:35.513Z,36.98
2023-06-30T00:54:35.529Z,36.90
2023-06-30T00:55:35.539Z,37.03
2023-06-30T00:56:35.584Z,36.87
2023-06-30T00:57:35.593Z,36.81
2023-06-30T00:58:35.598Z,36.76
2023-06-30T00:59:35.661Z,36.87
2023-06-30T01:00:35.656Z,36.84
2023-06-30T01:01:35.694Z,36.84
2023-06-30T01:02:35.740Z,36.83
2023-06-30T01:03:35.772Z,36.87
2023-06-30T01:04:35.775Z,36.90
2023-06-30T01:05:35.745Z,36.96
2023-06-30T01:06:35.777Z,37.03
2023-06-30T01:07:35.834Z,37.04
2023-06-30T01:08:35.825Z,36.96
2023-06-30T01:09:35.852Z,37.05
2023-06-30T01:10:35.880Z,36.98
2023-06-30T01:11:35.890Z,37.10
2023-06-30T01:12:35.961Z,37.07
2023-06-30T01:13:35.947Z,37.00
2023-06-30T01:14:35.972Z,37.11
2023-06-30T01:15:36.009Z,37.10
2023-06-30T01:16:36.087Z,37.06
2023-06-30T01:17:36.056Z,37.06
2023-06-30T01:18:36.066Z,37.10
2023-06-30T01:19:36.109Z,37.04
2023-06-30T01:20:36.118Z,37.19
2023-06-30T01:21:36.150Z,37.18
2023-06-30T01:22:36.152Z,37.11
2023-06-30T01:23:36.192Z,37.07
2023-06-30T01:24:36.231Z,37.14
2023-06-30T01:25:36.287Z,37.11
2023-06-30T01:26:36.261Z,37.10
2023-06-30T01:27:36.302Z,37.18
2023-06-30T01:28:36.381Z,37.20
2023-06-30T01:29:36.348Z,37.26
2023-06-30T01:30:36.384Z,37.23
2023-06-30T01:31:36.411Z,37.23
2023-06-30T01:32:36.449Z,37.20
2023-06-30T01:33:36.478Z,37.28
2023-06-30T01:34:36.482Z,37.20
2023-06-30T01:35:36.551Z,37.29
2023-06-30T01:36:36.534Z,37.25
2023-06-30T01:37:36.587Z,37.33
2023-06-30T01:38:36.592Z,37.33
2023-06-30T01:39:36.627Z,37.32
2023-06-30T01:40:36.654Z,37.28
2023-06-30T01:41:36.696Z,37.33
2023-06-30T01:42:36.714Z,37.35
2023-06-30T01:43:36.751Z,37.35
2023-06-30T01:44:36.803Z,37.39
2023-06-30T01:45:36.837Z,37.41
2023-06-30T01:46:36.917Z,37.44
2023-06-30T01:47:36.917Z,37.41
2023-06-30T01:48:36.923Z,37.41
2023-06-30T01:49:36.964Z,37.45
2023-06-30T01:50:36.979Z,37.43
2023-06-30T01:51:37.044Z,37.47
2023-06-30T01:52:37.071Z,37.41
2023-06-30T01:53:37.071Z,37.47
2023-06-30T01:54:37.103Z,37.47
2023-06-30T01:55:37.171Z,37.50
2023-06-30T01:56:37.186Z,37.53
2023-06-30T01:57:37.183Z,37.54
2023-06-30T01:58:37.241Z,37.46
2023-06-30T01:59:37.274Z,37.49
2023-06-30T02:00:37.272Z,37.53
2023-06-30T02:01:37.395Z,37.53
2023-06-30T02:02:37.410Z,37.53
2023-06-30T02:03:37.398Z,37.55
2023-06-30T02:04:37.420Z,37.62
2023-06-30T02:05:37.438Z,37.55
2023-06-30T02:06:37.486Z,37.57
2023-06-30T02:07:37.566Z,37.61
2023-06-30T02:08:37.550Z,37.57
2023-06-30T02:09:48.147Z,37.54
2023-06-30T02:10:38.563Z,37.61
2023-06-30T02:11:37.573Z,37.61
2023-06-30T02:12:37.569Z,37.66
2023-06-30T02:13:37.532Z,37.65
2023-06-30T02:14:37.553Z,37.60
2023-06-30T02:15:37.568Z,37.67
2023-06-30T02:16:37.591Z,37.64
2023-06-30T02:17:37.543Z,37.64
2023-06-30T02:18:37.497Z,37.58
2023-06-30T02:19:37.499Z,37.62
2023-06-30T02:20:37.504Z,37.70
2023-06-30T02:21:37.491Z,37.61
2023-06-30T02:22:37.501Z,37.64
2023-06-30T02:23:37.477Z,37.66
2023-06-30T02:24:37.447Z,37.70
2023-06-30T02:25:37.445Z,37.74
2023-06-30T02:26:37.470Z,37.75
2023-06-30T02:27:37.533Z,37.73
2023-06-30T02:28:37.561Z,37.77
2023-06-30T02:29:37.592Z,37.75
2023-06-30T02:30:37.608Z,37.78
2023-06-30T02:31:37.672Z,37.77
2023-06-30T02:32:37.717Z,37.82
2023-06-30T02:33:37.730Z,37.77
2023-06-30T02:34:37.778Z,37.82
2023-06-30T02:35:37.846Z,37.88
2023-06-30T02:36:37.829Z,37.79
2023-06-30T02:37:37.869Z,37.88
2023-06-30T02:38:37.874Z,37.81
2023-06-30T02:39:37.917Z,37.87
2023-06-30T02:40:37.971Z,37.82
2023-06-30T02:41:38.006Z,37.87
2023-06-30T02:42:38.032Z,37.93
2023-06-30T02:43:38.056Z,38.00
2023-06-30T02:44:38.115Z,37.98
2023-06-30T02:45:38.177Z,37.90
2023-06-30T02:46:38.187Z,37.95
2023-06-30T02:47:38.244Z,37.95
2023-06-30T02:48:38.243Z,37.90
2023-06-30T02:49:38.280Z,37.95
2023-06-30T02:50:38.328Z,38.02
2023-06-30T02:51:38.351Z,37.99
2023-06-30T02:52:38.388Z,38.03
2023-06-30T02:53:38.446Z,37.94
2023-06-30T02:54:38.459Z,37.95
2023-06-30T02:55:39.371Z,37.94
2023-06-30T02:56:38.538Z,37.99
2023-06-30T02:57:38.631Z,37.99
2023-06-30T02:58:38.657Z,37.98
2023-06-30T02:59:38.650Z,38.03
2023-06-30T03:00:38.714Z,38.08
2023-06-30T03:01:38.837Z,38.13
2023-06-30T03:02:39.014Z,38.09
2023-06-30T03:03:38.871Z,38.13
2023-06-30T03:04:38.852Z,38.09
2023-06-30T03:05:38.899Z,38.13
2023-06-30T03:06:38.938Z,38.19
2023-06-30T03:07:39.010Z,38.17
2023-06-30T03:08:39.013Z,38.18
2023-06-30T03:09:39.037Z,38.18
2023-06-30T03:10:39.092Z,38.13
2023-06-30T03:11:39.132Z,38.19
2023-06-30T03:12:39.152Z,38.21
2023-06-30T03:13:39.217Z,38.26
2023-06-30T03:14:39.230Z,38.25
2023-06-30T03:15:39.253Z,38.27
2023-06-30T03:16:39.324Z,38.30
2023-06-30T03:17:39.369Z,38.21
2023-06-30T03:18:39.366Z,38.27
2023-06-30T03:19:39.383Z,38.26
2023-06-30T03:20:39.448Z,38.28
2023-06-30T03:21:39.464Z,38.25
2023-06-30T03:22:39.492Z,38.29
2023-06-30T03:23:39.522Z,38.25
2023-06-30T03:24:39.543Z,38.30
2023-06-30T03:25:39.594Z,38.34
2023-06-30T03:26:39.656Z,38.30
2023-06-30T03:27:39.670Z,38.34
2023-06-30T03:28:39.681Z,38.34
2023-06-30T03:29:39.718Z,38.37
2023-06-30T03:30:39.808Z,38.41
2023-06-30T03:31:39.816Z,38.41
2023-06-30T03:32:39.919Z,38.41
2023-06-30T03:33:39.849Z,38.40
2023-06-30T03:34:39.927Z,38.45
2023-06-30T03:35:39.932Z,38.43
2023-06-30T03:36:39.971Z,38.44
2023-06-30T03:37:40.019Z,38.43
2023-06-30T03:38:40.016Z,38.44
2023-06-30T03:39:40.066Z,38.40
2023-06-30T03:40:40.131Z,38.44
2023-06-30T03:41:40.129Z,38.45
2023-06-30T03:42:40.171Z,38.44
2023-06-30T03:43:40.202Z,38.51
2023-06-30T03:44:40.260Z,38.51
2023-06-30T03:45:40.276Z,38.50
2023-06-30T03:46:40.318Z,38.46
2023-06-30T03:47:40.352Z,38.45
2023-06-30T03:48:40.364Z,38.41
2023-06-30T03:49:40.412Z,38.48
2023-06-30T03:50:40.446Z,38.45
2023-06-30T03:51:40.490Z,38.50
2023-06-30T03:52:40.528Z,38.48
2023-06-30T03:53:40.571Z,38.45
2023-06-30T03:54:40.608Z,38.48
2023-06-30T03:55:40.652Z,38.48
2023-06-30T03:56:40.686Z,38.52
2023-06-30T03:57:40.714Z,38.48
2023-06-30T03:58:40.763Z,38.52
2023-06-30T03:59:40.830Z,38.53
2023-06-30T04:00:40.869Z,38.55
2023-06-30T04:01:40.892Z,38.53
2023-06-30T04:02:41.151Z,38.55
2023-06-30T04:03:41.131Z,38.61
2023-06-30T04:04:41.067Z,38.53
2023-06-30T04:05:41.039Z,38.53
2023-06-30T04:06:41.076Z,38.57
2023-06-30T04:07:41.163Z,38.53
2023-06-30T04:08:41.164Z,38.59
2023-06-30T04:09:41.204Z,38.60
2023-06-30T04:10:41.227Z,38.57
2023-06-30T04:11:41.272Z,38.62
2023-06-30T04:12:41.329Z,38.60
2023-06-30T04:13:41.343Z,38.57
2023-06-30T04:14:41.386Z,38.62
2023-06-30T04:15:41.418Z,38.60
2023-06-30T04:16:41.505Z,38.60
2023-06-30T04:17:41.561Z,38.59
2023-06-30T04:18:41.548Z,38.64
2023-06-30T04:19:41.595Z,38.64
2023-06-30T04:20:41.637Z,38.60
2023-06-30T04:21:41.659Z,38.60
2023-06-30T04:22:41.714Z,38.61
2023-06-30T04:23:41.753Z,38.66
2023-06-30T04:24:41.802Z,38.69
2023-06-30T04:25:41.851Z,38.61
2023-06-30T04:26:41.882Z,38.66
2023-06-30T04:27:41.908Z,38.66
2023-06-30T04:28:41.966Z,38.69
2023-06-30T04:29:41.997Z,38.74
2023-06-30T04:30:42.029Z,38.69
2023-06-30T04:31:42.121Z,38.73
2023-06-30T04:32:42.147Z,38.77
2023-06-30T04:33:42.172Z,38.71
2023-06-30T04:34:42.193Z,38.77
2023-06-30T04:35:42.363Z,38.74
2023-06-30T04:36:42.293Z,38.77
2023-06-30T04:37:42.343Z,38.73
2023-06-30T04:38:42.431Z,38.77
2023-06-30T04:39:42.430Z,38.80
2023-06-30T04:40:42.479Z,38.76
2023-06-30T04:41:42.518Z,38.78
2023-06-30T04:42:42.539Z,38.76
2023-06-30T04:43:42.581Z,38.72
2023-06-30T04:44:42.636Z,38.84
2023-06-30T04:45:42.927Z,38.83
2023-06-30T04:46:42.820Z,38.80
2023-06-30T04:47:42.792Z,38.81
2023-06-30T04:48:42.811Z,38.83
2023-06-30T04:49:42.847Z,38.81
2023-06-30T04:50:42.932Z,38.83
2023-06-30T04:51:42.939Z,38.84
2023-06-30T04:52:43.005Z,38.80
2023-06-30T04:53:43.037Z,38.92
2023-06-30T04:54:43.068Z,38.81
2023-06-30T04:55:43.277Z,38.87
2023-06-30T04:56:43.157Z,38.91
2023-06-30T04:57:43.203Z,38.89
2023-06-30T04:58:43.237Z,38.89
2023-06-30T04:59:43.307Z,38.88
2023-06-30T05:00:43.315Z,38.91
2023-06-30T05:01:43.380Z,38.94
2023-06-30T05:02:43.432Z,38.93
2023-06-30T05:03:43.497Z,38.92
2023-06-30T05:04:43.482Z,38.96
2023-06-30T05:05:43.828Z,38.96
2023-06-30T05:06:43.593Z,38.94
2023-06-30T05:07:43.671Z,39.00
2023-06-30T05:08:43.652Z,39.02
2023-06-30T05:09:43.706Z,38.99
2023-06-30T05:10:43.752Z,38.95
2023-06-30T05:11:43.785Z,39.55
2023-06-30T05:12:43.851Z,40.02
2023-06-30T05:13:43.890Z,40.17
2023-06-30T05:14:43.937Z,40.86
2023-06-30T05:15:44.273Z,40.82
2023-06-30T05:16:43.988Z,41.20
2023-06-30T05:17:44.033Z,41.48
2023-06-30T05:18:44.020Z,41.50
2023-06-30T05:19:44.074Z,41.75
2023-06-30T05:20:44.183Z,41.87
2023-06-30T05:21:44.171Z,42.14
2023-06-30T05:22:44.245Z,42.25
2023-06-30T05:23:44.327Z,42.28
2023-06-30T05:24:44.280Z,42.58
2023-06-30T05:25:44.534Z,42.64
2023-06-30T05:26:44.433Z,42.83
2023-06-30T05:27:44.523Z,42.88
2023-06-30T05:28:52.711Z,42.98
2023-06-30T05:29:45.508Z,43.36
2023-06-30T05:30:44.516Z,43.42
2023-06-30T05:31:44.542Z,43.43
2023-06-30T05:32:44.534Z,43.86
2023-06-30T05:33:44.511Z,43.74
2023-06-30T05:34:44.551Z,43.82
2023-06-30T05:35:44.699Z,44.17
2023-06-30T05:36:44.488Z,44.06
2023-06-30T05:37:44.466Z,44.16
2023-06-30T05:38:44.520Z,44.26
2023-06-30T05:39:44.433Z,44.61
2023-06-30T05:40:44.429Z,44.35
2023-06-30T05:41:44.447Z,44.08
2023-06-30T05:42:44.497Z,44.06
2023-06-30T05:43:44.537Z,43.56
2023-06-30T05:44:45.493Z,43.27
2023-06-30T05:45:44.752Z,43.68
2023-06-30T05:46:44.603Z,43.36
2023-06-30T05:47:44.597Z,43.20
2023-06-30T05:48:44.627Z,42.95
2023-06-30T05:49:44.597Z,42.88
2023-06-30T05:50:44.623Z,42.62
2023-06-30T05:51:44.624Z,42.52
2023-06-30T05:52:44.630Z,42.23
2023-06-30T05:53:44.635Z,42.41
2023-06-30T05:54:44.688Z,42.17
2023-06-30T05:55:44.847Z,42.16
2023-06-30T05:56:44.674Z,42.58
2023-06-30T05:57:44.701Z,42.25
2023-06-30T05:58:44.726Z,42.24
2023-06-30T05:59:44.743Z,42.36
2023-06-30T06:00:44.760Z,42.20
2023-06-30T06:01:44.775Z,42.44
2023-06-30T06:02:44.888Z,42.28
2023-06-30T06:03:45.078Z,42.23
2023-06-30T06:04:44.998Z,42.21
2023-06-30T06:05:45.164Z,42.49
2023-06-30T06:06:44.877Z,42.36
2023-06-30T06:07:45.054Z,42.27
2023-06-30T06:08:44.920Z,42.20
2023-06-30T06:09:44.943Z,42.23
2023-06-30T06:10:45.000Z,42.22
2023-06-30T06:11:44.975Z,42.18
2023-06-30T06:12:45.020Z,42.18
2023-06-30T06:13:45.003Z,42.19
2023-06-30T06:14:45.010Z,42.24
2023-06-30T06:15:45.192Z,42.22
2023-06-30T06:16:45.099Z,42.20
2023-06-30T06:17:45.128Z,42.88
2023-06-30T06:18:46.550Z,42.38
2023-06-30T06:19:45.132Z,42.50
2023-06-30T06:20:45.126Z,42.60
2023-06-30T06:21:45.106Z,42.40
2023-06-30T06:22:45.097Z,42.63
2023-06-30T06:23:45.083Z,42.54
2023-06-30T06:24:45.104Z,42.95
2023-06-30T06:25:45.612Z,42.87
2023-06-30T06:26:45.098Z,43.28
2023-06-30T06:27:45.061Z,43.26
2023-06-30T06:28:45.058Z,43.15
2023-06-30T06:29:45.050Z,43.33
2023-06-30T06:30:45.523Z,43.20
2023-06-30T06:31:45.050Z,43.24
2023-06-30T06:32:45.108Z,42.86
2023-06-30T06:33:45.008Z,43.06
2023-06-30T06:34:45.006Z,43.60
2023-06-30T06:35:45.219Z,43.56
2023-06-30T06:36:45.010Z,43.11
2023-06-30T06:37:45.010Z,43.24
2023-06-30T06:38:44.988Z,43.22
2023-06-30T06:39:44.975Z,42.93
2023-06-30T06:40:44.973Z,42.85
2023-06-30T06:41:44.959Z,42.74
2023-06-30T06:42:44.973Z,42.85
2023-06-30T06:43:44.988Z,43.15
2023-06-30T06:44:44.952Z,43.18
2023-06-30T06:45:45.260Z,42.67
2023-06-30T06:46:45.086Z,42.91
2023-06-30T06:47:45.019Z,42.75
2023-06-30T06:48:44.967Z,42.82
2023-06-30T06:49:47.006Z,42.83
2023-06-30T06:50:44.995Z,43.36
2023-06-30T06:51:44.930Z,43.10
2023-06-30T06:52:44.892Z,42.84
2023-06-30T06:53:44.885Z,42.76
2023-06-30T06:54:44.895Z,43.53
2023-06-30T06:55:45.316Z,43.22
2023-06-30T06:56:44.859Z,43.18
2023-06-30T06:57:44.871Z,43.38
2023-06-30T06:58:44.877Z,43.22
2023-06-30T06:59:44.908Z,43.22
2023-06-30T07:00:44.943Z,43.07
2023-06-30T07:01:44.993Z,43.13
2023-06-30T07:02:45.050Z,43.07
2023-06-30T07:03:45.080Z,43.30
2023-06-30T07:04:45.128Z,43.32
2023-06-30T07:05:45.550Z,43.17
2023-06-30T07:06:45.219Z,43.17
2023-06-30T07:07:45.353Z,43.27
2023-06-30T07:08:45.333Z,43.26
2023-06-30T07:09:45.416Z,43.46
2023-06-30T07:10:45.457Z,43.38
2023-06-30T07:11:45.502Z,43.38
2023-06-30T07:12:45.569Z,43.48
2023-06-30T07:13:45.648Z,43.43
2023-06-30T07:14:47.934Z,43.50
2023-06-30T07:15:45.915Z,43.63
2023-06-30T07:16:45.727Z,43.77
2023-06-30T07:17:45.767Z,43.59
2023-06-30T07:18:45.764Z,43.82
2023-06-30T07:19:45.662Z,43.65
2023-06-30T07:20:45.653Z,43.75
2023-06-30T07:21:45.640Z,43.83
2023-06-30T07:22:45.618Z,43.86
2023-06-30T07:23:45.632Z,43.76
2023-06-30T07:24:45.647Z,43.82
2023-06-30T07:25:45.944Z,43.82
2023-06-30T07:26:45.618Z,43.70
2023-06-30T07:27:45.757Z,43.73
2023-06-30T07:28:45.620Z,43.60
2023-06-30T07:29:45.650Z,43.62
2023-06-30T07:30:45.596Z,43.57
2023-06-30T07:31:45.668Z,43.66
2023-06-30T07:32:45.614Z,43.59
2023-06-30T07:33:45.574Z,43.75
2023-06-30T07:34:45.578Z,43.68
2023-06-30T07:35:45.965Z,43.91
2023-06-30T07:36:45.559Z,43.83
2023-06-30T07:37:45.556Z,43.95
2023-06-30T07:38:45.525Z,44.11
2023-06-30T07:39:45.513Z,44.23
2023-06-30T07:40:55.930Z,44.26
2023-06-30T07:41:46.545Z,44.27
2023-06-30T07:42:45.534Z,44.12
2023-06-30T07:43:45.492Z,44.09
2023-06-30T07:44:45.521Z,44.18
2023-06-30T07:45:45.726Z,44.04
2023-06-30T07:46:45.485Z,44.17
2023-06-30T07:47:45.598Z,44.09
2023-06-30T07:48:45.619Z,43.98
2023-06-30T07:49:45.484Z,43.92
2023-06-30T07:50:58.810Z,43.93
2023-06-30T07:51:46.550Z,43.92
2023-06-30T07:52:45.538Z,43.91
2023-06-30T07:53:45.565Z,43.98
2023-06-30T07:54:45.538Z,43.90
2023-06-30T07:55:46.148Z,43.91
2023-06-30T07:56:45.529Z,43.80
2023-06-30T07:57:45.687Z,43.69
2023-06-30T07:58:45.500Z,43.55
2023-06-30T07:59:45.539Z,43.32
2023-06-30T08:00:45.485Z,43.47
2023-06-30T08:01:45.477Z,43.55
2023-06-30T08:02:45.540Z,43.52
2023-06-30T08:03:45.682Z,43.32
2023-06-30T08:04:45.585Z,43.66
2023-06-30T08:05:46.114Z,43.58
2023-06-30T08:06:45.494Z,43.50
2023-06-30T08:07:49.266Z,43.58
2023-06-30T08:08:46.488Z,43.51
2023-06-30T08:09:45.500Z,43.62
2023-06-30T08:10:45.505Z,43.63
2023-06-30T08:11:45.474Z,43.69
2023-06-30T08:12:45.470Z,43.72
2023-06-30T08:13:45.466Z,43.69
2023-06-30T08:14:45.504Z,43.90
2023-06-30T08:15:48.725Z,43.74
2023-06-30T08:16:45.499Z,43.81
2023-06-30T08:17:56.535Z,44.09
2023-06-30T08:18:51.309Z,44.34
2023-06-30T08:19:49.717Z,44.31
2023-06-30T08:20:45.492Z,44.35
2023-06-30T08:21:45.453Z,44.53
2023-06-30T08:22:47.030Z,44.54
2023-06-30T08:23:45.409Z,44.78
2023-06-30T08:24:45.382Z,44.74
2023-06-30T08:25:45.539Z,44.84
2023-06-30T08:26:45.364Z,45.01
2023-06-30T08:27:45.387Z,44.98
2023-06-30T08:28:45.358Z,44.96
2023-06-30T08:29:45.355Z,45.22
2023-06-30T08:30:45.372Z,45.63
2023-06-30T08:31:45.328Z,45.77
2023-06-30T08:32:45.357Z,45.65
2023-06-30T08:33:45.359Z,45.48
2023-06-30T08:34:45.392Z,45.37
2023-06-30T08:35:45.621Z,45.62
2023-06-30T08:36:45.477Z,45.51
2023-06-30T08:37:45.591Z,45.68
2023-06-30T08:38:45.601Z,45.61
2023-06-30T08:39:45.662Z,45.68
2023-06-30T08:40:45.737Z,45.68
2023-06-30T08:41:45.765Z,45.70
2023-06-30T08:42:45.832Z,45.53
2023-06-30T08:43:45.877Z,45.85
2023-06-30T08:44:45.969Z,45.97
2023-06-30T08:45:46.179Z,45.67
2023-06-30T08:46:46.108Z,45.75
2023-06-30T08:47:46.218Z,45.72
2023-06-30T08:48:46.151Z,45.48
2023-06-30T08:49:46.223Z,45.43
2023-06-30T08:50:46.267Z,45.36
2023-06-30T08:51:46.341Z,45.51
2023-06-30T08:52:46.382Z,45.42
2023-06-30T08:53:46.430Z,45.57
2023-06-30T08:54:46.507Z,45.52
2023-06-30T08:55:46.789Z,45.39
2023-06-30T08:56:46.607Z,45.66
2023-06-30T08:57:46.635Z,45.61
2023-06-30T08:58:46.654Z,45.51
2023-06-30T08:59:46.718Z,45.41
2023-06-30T09:00:46.762Z,45.48
2023-06-30T09:01:47.334Z,45.57
2023-06-30T09:02:46.928Z,45.37
2023-06-30T09:03:46.970Z,45.37
2023-06-30T09:04:46.960Z,45.28
2023-06-30T09:05:47.296Z,45.36
2023-06-30T09:06:46.989Z,45.62
2023-06-30T09:07:47.096Z,45.55
2023-06-30T09:08:47.080Z,45.44
2023-06-30T09:09:47.139Z,45.32
2023-06-30T09:10:47.170Z,45.10
2023-06-30T09:11:47.231Z,45.17
2023-06-30T09:12:47.316Z,45.29
2023-06-30T09:13:47.349Z,45.45
2023-06-30T09:14:48.115Z,45.62
2023-06-30T09:15:47.643Z,45.71
2023-06-30T09:16:47.561Z,46.18
2023-06-30T09:17:47.700Z,46.16
2023-06-30T09:18:47.604Z,45.92
2023-06-30T09:19:47.694Z,46.04
2023-06-30T09:20:47.746Z,45.99
2023-06-30T09:21:47.784Z,45.83
2023-06-30T09:22:51.696Z,45.59
2023-06-30T09:23:48.826Z,45.37
2023-06-30T09:24:47.793Z,45.28
2023-06-30T09:25:48.079Z,45.56
2023-06-30T09:26:47.785Z,45.47
2023-06-30T09:27:47.785Z,45.39
2023-06-30T09:28:47.846Z,45.23
2023-06-30T09:29:47.753Z,45.38
2023-06-30T09:30:47.858Z,45.72
2023-06-30T09:31:47.781Z,45.77
2023-06-30T09:32:47.814Z,45.80
2023-06-30T09:33:47.852Z,46.02
2023-06-30T09:34:47.914Z,46.15
2023-06-30T09:35:48.793Z,46.06
2023-06-30T09:36:48.008Z,45.83
2023-06-30T09:37:48.098Z,45.64
2023-06-30T09:38:48.157Z,45.24
2023-06-30T09:39:48.207Z,45.32
2023-06-30T09:40:48.334Z,45.35
2023-06-30T09:41:48.320Z,45.39
2023-06-30T09:42:48.504Z,45.39
2023-06-30T09:43:48.449Z,45.61
2023-06-30T09:44:48.485Z,45.59
2023-06-30T09:45:49.163Z,45.62
2023-06-30T09:46:48.562Z,45.36
2023-06-30T09:47:48.673Z,45.33
2023-06-30T09:48:48.676Z,45.27
2023-06-30T09:49:48.802Z,45.28
2023-06-30T09:50:48.814Z,45.41
2023-06-30T09:51:48.847Z,45.38
2023-06-30T09:52:48.903Z,45.34
2023-06-30T09:53:48.922Z,45.43
2023-06-30T09:54:49.003Z,45.13
2023-06-30T09:55:49.524Z,44.98
2023-06-30T09:56:49.092Z,45.04
2023-06-30T09:57:49.186Z,44.87
2023-06-30T09:58:49.635Z,44.89
2023-06-30T09:59:49.513Z,45.00
2023-06-30T10:00:49.314Z,45.26
2023-06-30T10:01:49.402Z,45.11
2023-06-30T10:02:49.503Z,44.80
2023-06-30T10:03:49.497Z,44.91
2023-06-30T10:04:49.524Z,44.84
2023-06-30T10:06:49.578Z,44.47
2023-06-30T10:07:49.603Z,44.42
2023-06-30T10:08:49.658Z,44.28
2023-06-30T10:09:49.613Z,44.37
2023-06-30T10:10:49.710Z,44.65
2023-06-30T10:11:49.687Z,44.90
2023-06-30T10:12:49.702Z,45.05
2023-06-30T10:13:49.701Z,45.68
2023-06-30T10:14:49.741Z,45.82
2023-06-30T10:15:50.061Z,45.94
2023-06-30T10:16:49.806Z,45.99
2023-06-30T10:17:49.859Z,46.11
2023-06-30T10:18:49.772Z,46.10
2023-06-30T10:19:49.792Z,46.15
2023-06-30T10:20:50.539Z,46.26
2023-06-30T10:21:49.848Z,46.66
2023-06-30T10:22:49.882Z,46.68
2023-06-30T10:23:49.905Z,46.41
2023-06-30T10:24:49.905Z,46.34
2023-06-30T10:25:50.579Z,46.22
2023-06-30T10:26:49.961Z,46.41
2023-06-30T10:27:49.989Z,46.26
2023-06-30T10:28:50.017Z,46.70
2023-06-30T10:29:50.021Z,46.44
2023-06-30T10:30:50.028Z,46.56
2023-06-30T10:31:50.031Z,46.73
2023-06-30T10:32:50.175Z,46.61
2023-06-30T10:33:50.189Z,46.37
2023-06-30T10:34:50.180Z,46.28
2023-06-30T10:35:50.244Z,46.11
2023-06-30T10:36:50.322Z,46.24
2023-06-30T10:37:50.339Z,46.46
2023-06-30T10:38:50.383Z,46.15
2023-06-30T10:39:50.419Z,46.24
2023-06-30T10:40:50.396Z,46.19
2023-06-30T10:41:50.433Z,45.98
2023-06-30T10:42:50.430Z,46.58
2023-06-30T10:43:50.469Z,45.66
2023-06-30T10:44:50.539Z,45.43
2023-06-30T10:45:50.590Z,45.21
2023-06-30T10:46:50.644Z,45.17
2023-06-30T10:47:50.699Z,44.89
2023-06-30T10:48:50.679Z,44.94
2023-06-30T10:49:50.703Z,44.97
2023-06-30T10:50:50.719Z,44.69
2023-06-30T10:51:50.751Z,44.81
2023-06-30T10:52:50.776Z,44.50
2023-06-30T10:53:50.774Z,44.37
2023-06-30T10:54:50.843Z,44.22
2023-06-30T10:55:51.037Z,44.18
2023-06-30T10:56:50.807Z,44.45
2023-06-30T10:57:50.851Z,44.51
2023-06-30T10:58:50.904Z,44.54
2023-06-30T10:59:50.953Z,44.64
2023-06-30T11:00:51.010Z,44.61
2023-06-30T11:01:51.073Z,44.40
2023-06-30T11:02:51.404Z,44.33
2023-06-30T11:03:51.307Z,44.61
2023-06-30T11:04:51.320Z,44.68
2023-06-30T11:05:51.526Z,44.40
2023-06-30T11:06:51.322Z,44.16
2023-06-30T11:07:51.386Z,44.16
2023-06-30T11:08:51.439Z,44.01
2023-06-30T11:09:51.490Z,43.77
2023-06-30T11:10:51.563Z,43.76
2023-06-30T11:11:52.028Z,43.72
2023-06-30T11:12:51.601Z,43.42
2023-06-30T11:13:51.647Z,43.28
2023-06-30T11:14:51.708Z,43.30
2023-06-30T11:15:54.382Z,43.18
2023-06-30T11:16:51.734Z,43.30
2023-06-30T11:17:51.787Z,43.10
2023-06-30T11:18:51.826Z,43.08
2023-06-30T11:19:51.724Z,42.84
2023-06-30T11:20:52.046Z,42.85
2023-06-30T11:21:51.682Z,42.74
2023-06-30T11:22:51.681Z,42.60
2023-06-30T11:23:51.667Z,42.61
2023-06-30T11:24:51.676Z,42.64
2023-06-30T11:25:51.671Z,42.37
2023-06-30T11:26:51.682Z,42.30
2023-06-30T11:27:51.663Z,42.17
2023-06-30T11:28:51.652Z,42.28
2023-06-30T11:29:51.809Z,42.19
2023-06-30T11:30:51.651Z,42.16
2023-06-30T11:31:51.627Z,42.10
2023-06-30T11:32:51.617Z,42.10
2023-06-30T11:33:51.632Z,42.02
2023-06-30T11:34:51.616Z,41.98
2023-06-30T11:35:51.603Z,41.97
2023-06-30T11:36:51.594Z,41.87
2023-06-30T11:37:51.608Z,41.78
2023-06-30T11:38:51.595Z,41.73
2023-06-30T11:39:51.576Z,41.71
2023-06-30T11:40:51.567Z,41.60
2023-06-30T11:41:51.552Z,41.59
2023-06-30T11:42:51.572Z,41.51
2023-06-30T11:43:51.541Z,41.54
2023-06-30T11:44:51.561Z,41.38
2023-06-30T11:45:51.544Z,41.39
2023-06-30T11:46:53.478Z,41.36
2023-06-30T11:47:51.563Z,41.42
2023-06-30T11:48:51.528Z,41.39
2023-06-30T11:49:51.561Z,41.32
2023-06-30T11:50:51.519Z,41.26
2023-06-30T11:51:51.526Z,41.21
2023-06-30T11:52:51.491Z,41.22
2023-06-30T11:53:51.484Z,41.13
2023-06-30T11:54:51.459Z,41.15
2023-06-30T11:55:51.500Z,41.18
2023-06-30T11:56:51.452Z,41.16
2023-06-30T11:57:51.465Z,41.08
2023-06-30T11:58:51.470Z,41.03
2023-06-30T11:59:51.447Z,41.11
2023-06-30T12:00:51.425Z,41.02
2023-06-30T12:01:51.439Z,40.98
2023-06-30T12:02:52.190Z,40.95
2023-06-30T12:03:51.495Z,40.99
2023-06-30T12:04:51.455Z,40.84
2023-06-30T12:05:51.411Z,40.80
2023-06-30T12:06:51.380Z,40.76
2023-06-30T12:07:51.380Z,40.80
2023-06-30T12:08:51.385Z,40.71
2023-06-30T12:09:51.360Z,40.73
2023-06-30T12:10:51.543Z,40.68
2023-06-30T12:11:51.345Z,40.69
2023-06-30T12:12:51.347Z,40.60
2023-06-30T12:13:51.333Z,40.59
2023-06-30T12:14:51.325Z,40.54
2023-06-30T12:15:51.537Z,40.58
2023-06-30T12:16:51.370Z,40.52
2023-06-30T12:17:51.417Z,40.47
2023-06-30T12:18:51.298Z,40.51
2023-06-30T12:19:51.298Z,40.47
2023-06-30T12:20:51.553Z,40.43
2023-06-30T12:21:51.291Z,40.42
2023-06-30T12:22:51.284Z,40.35
2023-06-30T12:23:51.275Z,40.40
2023-06-30T12:24:51.277Z,40.31
2023-06-30T12:25:51.270Z,40.36
2023-06-30T12:26:51.241Z,40.33
2023-06-30T12:27:51.228Z,40.31
2023-06-30T12:28:51.239Z,40.25
2023-06-30T12:29:51.232Z,40.26
2023-06-30T12:30:51.231Z,40.23
2023-06-30T12:31:51.242Z,40.10
2023-06-30T12:32:51.246Z,40.14
2023-06-30T12:33:51.190Z,40.11
2023-06-30T12:34:51.195Z,40.07
2023-06-30T12:35:51.192Z,40.10
2023-06-30T12:36:51.184Z,40.02
2023-06-30T12:37:51.192Z,40.02
2023-06-30T12:38:51.185Z,39.97
2023-06-30T12:39:51.186Z,39.88
2023-06-30T12:40:51.159Z,39.96
2023-06-30T12:41:51.208Z,39.93
2023-06-30T12:42:51.129Z,39.94
2023-06-30T12:43:51.404Z,39.86
2023-06-30T12:44:51.122Z,39.88
2023-06-30T12:45:51.152Z,39.87
2023-06-30T12:46:51.120Z,39.76
2023-06-30T12:47:51.214Z,39.83
2023-06-30T12:48:51.087Z,39.75
2023-06-30T12:49:51.102Z,39.71
2023-06-30T12:50:51.130Z,39.71
2023-06-30T12:51:51.071Z,39.71
2023-06-30T12:52:51.090Z,39.72
2023-06-30T12:53:51.059Z,39.72